Terminal Aerodrome Forecast
Issued by NWS

Current Version | Previous Version | Graphics & Text | Print | Product List | Glossary On
Versions: 1 2 3 4 5 6 7 8 9 10 11 12 13 14 15 16 17 18 19 20 21 22 23 24 25 26 27 28 29
616
FTUS41 KILN 261642 AAA
TAFLUK
TAF AMD
KLUK 261642Z 2617/2712 VRB03KT P6SM -TSRA BKN035CB
      TEMPO 2617/2619 3SM TSRA BKN035CB
     FM261900 VRB05KT P6SM VCTS BKN040CB
     FM270000 VRB03KT P6SM BKN060
     FM270800 00000KT 3SM BR BKN060=

USA.gov is the U.S. government's official web portal to all federal, state and local government web resources and services.